Etusivu
METAR-TAF:

METAR-TAF

Lentoasemat :

Wanaham

Lifou, Uusi-Kaledonia

Leveyspiiri: 20-46S, Pituuspiiri: 167-14E, korkeus merenpinnasta: 28 m

METAR: puuttuu

Aika: 09:54 (22:54 UTC)

Sääennuste

Tämä raportti tehtiin 5 tuntia ja 54 minuuttia sitten, kello 17.00 UTC
Ennuste voimassa 23. päivästä klo 18 UTC - 24. päivään klo 18 UTC
Tuuli 10 kn pohjoisesta
Näkyvyys 10 km tai enemmän
Hajonneita pilviä 1800 ft:n korkeudessa
Hajonneita pilviä 3500 ft:n korkeudessa
Hajonneita pilviä 5500 ft:n korkeudessa
Todennäköisyys 40% :
Ajoittain
23. päivästä klo 18 UTC - 24. päivään klo 06 UTC
Näkyvyys: 4000 m
Hajonneita pilviä 900 ft:n korkeudessa
Muutamia pilviä 1800 ft:n korkeudessa, Cumulonimbus.
vesikuuroja,

TAF: NWWL 231700Z 2318/2418 35010KT 9999 BKN018 BKN035 BKN055 PROB40 TEMPO 2318/2406 4000 SHRA BKN009 FEW018CB

Säähavainnot ja -ennusteet yli 4000 lentoasemalta (METAR- ja TAF-raportit).

Käytössä olevat sääasemat on merkitty karttaan keltaisilla ja punaisilla pisteillä.

Aseta hiiri pisteen päälle nähdäksesi sääaseman nimen.

Klikkaa sitten nähdäksesi säähavainnot ja -ennusteet.

Kartan vaihtaminen: klikkaa mustalla rastilla varustettuja vihreitä pisteitä, niin voit zoomata sisään; viivalla varustettua vihreää pistettä, niin voit zoomata ulos tai vihreitä nuolia, niin pääset viereisille kartoille.


METAR-TAF: